Time;durP1;ratioP1;P1;durP2;ratioP2;P2;SDS_P1;SDS_P2;PMS_P1;PMS_P2;Temp;Humidity;BMP_temperature;BMP_pressure;BME280_temperature;BME280_humidity;BME280_pressure;Samples;Min_cycle;Max_cycle;Signal;HPM_P1;HPM_P2
2023/01/07 00:00:48;;;;;;;;;;;10.80;99.90;;;;;;5057082;28;19925;-88
2023/01/07 00:03:15;;;;;;;;;;;10.80;99.90;;;;;;5056454;28;19967;-83
2023/01/07 00:05:42;;;;;;;;;;;10.80;99.90;;;;;;5057167;28;19909;-84
2023/01/07 00:08:07;;;;;;;;;;;10.80;99.90;;;;;;5057423;28;20015;-83
2023/01/07 00:10:33;;;;;;;;;;;10.90;99.90;;;;;;5056759;28;19976;-84
2023/01/07 00:12:59;;;;;;;;;;;10.90;99.90;;;;;;5057253;28;19959;-84
2023/01/07 00:15:24;;;;;;;;;;;10.90;99.90;;;;;;5055678;28;19909;-84
2023/01/07 00:17:50;;;;;;;;;;;10.90;99.90;;;;;;5059870;28;19939;-84
2023/01/07 00:20:15;;;;;;;;;;;11.00;99.90;;;;;;5076357;28;19965;-83
2023/01/07 00:22:41;;;;;;;;;;;11.00;99.90;;;;;;5077214;28;19909;-81
2023/01/07 00:25:06;;;;;;;;;;;10.90;99.90;;;;;;5077006;28;20289;-82
2023/01/07 00:27:32;;;;;;;;;;;10.50;99.90;;;;;;5075171;28;19990;-83
2023/01/07 00:29:58;;;;;;;;;;;10.20;99.90;;;;;;5077468;28;19939;-84
2023/01/07 00:32:46;;;;;;;;;;;9.90;99.90;;;;;;5074765;28;19908;-84
2023/01/07 00:35:21;;;;;;;;;;;9.80;99.90;;;;;;5073351;28;20285;-84
2023/01/07 00:37:50;;;;;;;;;;;9.60;99.90;;;;;;5072161;28;20000;-83
2023/01/07 00:40:15;;;;;;;;;;;9.40;99.90;;;;;;5073385;28;19935;-80
2023/01/07 00:42:53;;;;;;;;;;;9.30;99.90;;;;;;5072390;28;20358;-79
2023/01/07 00:45:22;;;;;;;;;;;9.20;99.90;;;;;;5073192;28;20038;-82
2023/01/07 00:47:52;;;;;;;;;;;9.10;99.90;;;;;;5072168;28;19944;-82
2023/01/07 00:50:19;;;;;;;;;;;9.00;99.90;;;;;;5070943;28;19921;-83
2023/01/07 00:52:44;;;;;;;;;;;9.00;99.90;;;;;;5072999;28;20400;-83
2023/01/07 00:55:10;;;;;;;;;;;9.00;99.90;;;;;;5073397;28;19984;-83
2023/01/07 00:57:36;;;;;;;;;;;9.00;99.90;;;;;;5072940;28;20012;-83
2023/01/07 01:00:01;;;;;;;;;;;9.00;99.90;;;;;;5060123;28;20431;-82
2023/01/07 01:02:27;;;;;;;;;;;9.00;99.90;;;;;;5053452;28;19928;-88
2023/01/07 01:04:52;;;;;;;;;;;9.00;99.90;;;;;;5053827;28;20046;-87
2023/01/07 01:07:18;;;;;;;;;;;9.00;99.90;;;;;;5053919;28;19909;-86
2023/01/07 01:09:45;;;;;;;;;;;9.00;99.90;;;;;;5054263;28;19909;-85
2023/01/07 01:12:10;;;;;;;;;;;9.00;99.90;;;;;;5053949;28;19936;-87
2023/01/07 01:14:36;;;;;;;;;;;9.00;99.90;;;;;;5053644;28;19956;-88
2023/01/07 01:17:01;;;;;;;;;;;9.00;99.90;;;;;;5053920;28;19939;-88
2023/01/07 01:19:27;;;;;;;;;;;9.00;99.90;;;;;;5053499;28;19961;-88
2023/01/07 01:21:52;;;;;;;;;;;9.00;99.90;;;;;;5056643;28;20019;-81
2023/01/07 01:24:18;;;;;;;;;;;9.00;99.90;;;;;;5071752;28;19912;-82
2023/01/07 01:26:44;;;;;;;;;;;9.00;99.90;;;;;;5073695;28;19916;-81
2023/01/07 01:29:09;;;;;;;;;;;9.00;99.90;;;;;;5073610;28;19913;-81
2023/01/07 01:31:35;;;;;;;;;;;9.00;99.90;;;;;;5054774;28;19909;-80
2023/01/07 01:34:00;;;;;;;;;;;9.00;99.90;;;;;;5053372;28;19915;-81
2023/01/07 01:36:26;;;;;;;;;;;9.00;99.90;;;;;;5051459;28;19995;-82
2023/01/07 01:38:51;;;;;;;;;;;8.90;99.90;;;;;;5053663;28;19982;-82
2023/01/07 01:41:17;;;;;;;;;;;8.90;99.90;;;;;;5052727;28;19931;-87
2023/01/07 01:43:43;;;;;;;;;;;8.90;99.90;;;;;;5052943;28;19924;-81
2023/01/07 01:46:11;;;;;;;;;;;8.90;99.90;;;;;;5052643;28;20393;-81
2023/01/07 01:48:38;;;;;;;;;;;8.90;99.90;;;;;;5052157;28;19924;-80
2023/01/07 01:51:05;;;;;;;;;;;8.90;99.90;;;;;;5052851;28;19916;-81
2023/01/07 01:53:33;;;;;;;;;;;8.90;99.90;;;;;;5053147;28;19909;-85
2023/01/07 01:56:06;;;;;;;;;;;8.90;99.90;;;;;;5051784;28;19916;-86
2023/01/07 01:58:33;;;;;;;;;;;8.90;99.90;;;;;;5052363;28;19960;-87
2023/01/07 02:00:59;;;;;;;;;;;8.90;99.90;;;;;;5052740;28;19920;-87
2023/01/07 02:03:26;;;;;;;;;;;8.90;99.90;;;;;;5051989;28;20350;-86
2023/01/07 02:05:52;;;;;;;;;;;8.90;99.90;;;;;;5054634;28;19913;-87
2023/01/07 02:08:20;;;;;;;;;;;8.90;99.90;;;;;;5054907;28;20286;-83
2023/01/07 02:10:47;;;;;;;;;;;8.90;99.90;;;;;;5054572;28;19948;-87
2023/01/07 02:13:19;;;;;;;;;;;8.90;99.90;;;;;;5053624;28;19916;-86
2023/01/07 02:15:58;;;;;;;;;;;8.90;99.90;;;;;;5053160;28;19908;-88
2023/01/07 02:18:23;;;;;;;;;;;8.90;99.90;;;;;;5054303;28;19919;-85
2023/01/07 02:20:55;;;;;;;;;;;8.90;99.90;;;;;;5054703;28;19917;-87
2023/01/07 02:23:23;;;;;;;;;;;8.90;99.90;;;;;;5054174;28;19913;-84
2023/01/07 02:26:07;;;;;;;;;;;8.90;99.90;;;;;;5052580;28;20315;-87
2023/01/07 02:28:45;;;;;;;;;;;8.90;99.90;;;;;;5071807;28;19912;-87
2023/01/07 02:31:29;;;;;;;;;;;8.90;99.90;;;;;;5072535;28;19908;-85
2023/01/07 02:33:57;;;;;;;;;;;8.90;99.90;;;;;;5072079;28;19962;-86
2023/01/07 02:36:30;;;;;;;;;;;8.90;99.90;;;;;;5071674;28;19954;-84
2023/01/07 02:39:10;;;;;;;;;;;8.90;99.90;;;;;;5072112;28;19916;-85
2023/01/07 02:41:54;;;;;;;;;;;8.90;99.90;;;;;;5069783;28;19974;-85
2023/01/07 02:44:33;;;;;;;;;;;8.80;99.90;;;;;;5072082;28;20386;-85
2023/01/07 02:47:21;;;;;;;;;;;8.80;99.90;;;;;;5072226;28;20293;-85
2023/01/07 02:49:47;;;;;;;;;;;8.80;99.90;;;;;;5074634;28;19920;-85
2023/01/07 02:52:17;;;;;;;;;;;8.80;99.90;;;;;;5076374;28;20316;-84
2023/01/07 02:54:44;;;;;;;;;;;8.80;99.90;;;;;;5071924;28;19955;-85
2023/01/07 02:57:28;;;;;;;;;;;8.80;99.90;;;;;;5071686;28;19920;-85
2023/01/07 02:59:54;;;;;;;;;;;8.70;99.90;;;;;;5073292;28;19962;-86
2023/01/07 03:02:19;;;;;;;;;;;8.80;99.90;;;;;;5070626;28;19917;-87
2023/01/07 03:05:14;;;;;;;;;;;8.70;99.90;;;;;;5071509;28;19912;-88
2023/01/07 03:07:58;;;;;;;;;;;8.70;99.90;;;;;;5057711;28;20370;-89
2023/01/07 03:10:24;;;;;;;;;;;8.70;99.90;;;;;;5071891;28;19916;-85
2023/01/07 03:13:04;;;;;;;;;;;8.80;99.90;;;;;;5070754;28;19931;-88
2023/01/07 03:15:38;;;;;;;;;;;8.70;99.90;;;;;;5071194;28;19966;-87
2023/01/07 03:18:09;;;;;;;;;;;8.70;99.90;;;;;;5066778;28;19971;-86
2023/01/07 03:20:37;;;;;;;;;;;8.80;99.90;;;;;;5051810;28;19955;-86
2023/01/07 03:23:09;;;;;;;;;;;8.80;99.90;;;;;;5051771;28;19909;-85
2023/01/07 03:25:36;;;;;;;;;;;8.80;99.90;;;;;;5051724;28;20003;-85
2023/01/07 03:28:03;;;;;;;;;;;8.70;99.90;;;;;;5050543;28;19916;-85
2023/01/07 03:30:29;;;;;;;;;;;8.70;99.90;;;;;;5051736;28;20359;-85
2023/01/07 03:33:10;;;;;;;;;;;8.70;99.90;;;;;;5050631;28;19915;-84
2023/01/07 03:35:37;;;;;;;;;;;8.70;99.90;;;;;;5051825;28;20402;-84
2023/01/07 03:38:03;;;;;;;;;;;8.70;99.90;;;;;;5052025;28;19967;-84
2023/01/07 03:40:30;;;;;;;;;;;8.70;99.90;;;;;;5052086;28;20362;-85
2023/01/07 03:42:55;;;;;;;;;;;8.70;99.90;;;;;;5052832;28;20035;-85
2023/01/07 03:45:22;;;;;;;;;;;8.70;99.90;;;;;;5050329;28;19956;-85
2023/01/07 03:47:49;;;;;;;;;;;8.60;99.90;;;;;;5051149;28;19974;-83
2023/01/07 03:50:15;;;;;;;;;;;8.70;99.90;;;;;;5052288;28;19921;-84
2023/01/07 03:52:41;;;;;;;;;;;8.70;99.90;;;;;;5051707;28;19909;-84
2023/01/07 03:55:07;;;;;;;;;;;8.70;99.90;;;;;;5052259;28;19909;-83
2023/01/07 03:57:32;;;;;;;;;;;8.60;99.90;;;;;;5055335;28;19913;-83
2023/01/07 03:59:58;;;;;;;;;;;8.60;99.90;;;;;;5061313;28;19913;-85
2023/01/07 04:02:24;;;;;;;;;;;8.60;99.90;;;;;;5064792;28;20420;-85
2023/01/07 04:04:49;;;;;;;;;;;8.60;99.90;;;;;;5066306;28;19952;-85
2023/01/07 04:07:15;;;;;;;;;;;8.60;99.90;;;;;;5063376;28;19909;-84
2023/01/07 04:09:41;;;;;;;;;;;8.60;99.90;;;;;;5063851;28;19915;-85
2023/01/07 04:12:06;;;;;;;;;;;8.60;99.90;;;;;;5064968;28;19909;-84
2023/01/07 04:14:32;;;;;;;;;;;8.60;99.90;;;;;;5078839;28;19901;-83
2023/01/07 04:16:57;;;;;;;;;;;8.60;99.90;;;;;;5078766;28;19928;-83
2023/01/07 04:19:23;;;;;;;;;;;8.60;99.90;;;;;;5078699;28;19908;-83
2023/01/07 04:21:48;;;;;;;;;;;8.60;99.90;;;;;;5077979;28;19973;-83
2023/01/07 04:24:14;;;;;;;;;;;8.60;99.90;;;;;;5078771;28;19901;-84
2023/01/07 04:26:40;;;;;;;;;;;8.50;99.90;;;;;;5078224;28;20022;-81
2023/01/07 04:29:05;;;;;;;;;;;8.50;99.90;;;;;;5078272;28;19908;-83
2023/01/07 04:31:31;;;;;;;;;;;8.50;99.90;;;;;;5094601;28;19927;-82
2023/01/07 04:33:56;;;;;;;;;;;8.40;99.90;;;;;;5088996;28;19920;-82
2023/01/07 04:36:22;;;;;;;;;;;8.40;99.90;;;;;;5084380;28;19984;-83
2023/01/07 04:38:48;;;;;;;;;;;8.40;99.90;;;;;;5081675;28;19913;-83
2023/01/07 04:41:13;;;;;;;;;;;8.40;99.90;;;;;;5080982;28;19917;-82
2023/01/07 04:43:39;;;;;;;;;;;8.40;99.90;;;;;;5080443;28;19913;-81
2023/01/07 04:46:04;;;;;;;;;;;8.40;99.90;;;;;;5080914;28;19909;-83
2023/01/07 04:48:30;;;;;;;;;;;8.30;99.90;;;;;;5079310;28;19998;-83
2023/01/07 04:50:56;;;;;;;;;;;8.30;99.90;;;;;;5078794;28;20280;-83
2023/01/07 04:53:21;;;;;;;;;;;8.30;99.90;;;;;;5078950;28;19908;-82
2023/01/07 04:55:47;;;;;;;;;;;8.30;99.90;;;;;;5077991;28;20330;-82
2023/01/07 04:58:12;;;;;;;;;;;8.30;99.90;;;;;;5078171;28;19912;-83
2023/01/07 05:00:38;;;;;;;;;;;8.30;99.90;;;;;;5078301;28;19913;-82
2023/01/07 05:03:03;;;;;;;;;;;8.30;99.90;;;;;;5077563;28;19909;-83
2023/01/07 05:05:29;;;;;;;;;;;8.30;99.90;;;;;;5077497;28;19934;-83
2023/01/07 05:07:55;;;;;;;;;;;8.30;99.90;;;;;;5080215;28;19919;-83
2023/01/07 05:10:20;;;;;;;;;;;8.30;99.90;;;;;;5079285;28;20326;-83
2023/01/07 05:12:46;;;;;;;;;;;8.30;99.90;;;;;;5076819;28;19931;-83
2023/01/07 05:15:13;;;;;;;;;;;8.30;99.90;;;;;;5076244;28;20673;-84
2023/01/07 05:17:39;;;;;;;;;;;8.30;99.90;;;;;;5076998;28;19924;-83
2023/01/07 05:20:06;;;;;;;;;;;8.40;99.90;;;;;;5076276;28;19912;-83
2023/01/07 05:22:32;;;;;;;;;;;8.40;99.90;;;;;;5076196;28;19954;-82
2023/01/07 05:24:57;;;;;;;;;;;8.40;99.90;;;;;;5076396;28;19916;-82
2023/01/07 05:27:23;;;;;;;;;;;8.30;99.90;;;;;;5077126;28;20273;-83
2023/01/07 05:29:48;;;;;;;;;;;8.30;99.90;;;;;;5074339;28;20169;-83
2023/01/07 05:32:14;;;;;;;;;;;8.30;99.90;;;;;;5076317;28;19908;-83
2023/01/07 05:34:39;;;;;;;;;;;8.30;99.90;;;;;;5076107;28;19999;-83
2023/01/07 05:37:05;;;;;;;;;;;8.30;99.90;;;;;;5075993;28;20257;-83
2023/01/07 05:39:31;;;;;;;;;;;8.20;99.90;;;;;;5076573;28;19983;-83
2023/01/07 05:41:56;;;;;;;;;;;8.20;99.90;;;;;;5069740;28;20004;-82
2023/01/07 05:44:22;;;;;;;;;;;8.20;99.90;;;;;;5055996;28;19909;-84
2023/01/07 05:46:47;;;;;;;;;;;8.20;99.90;;;;;;5053863;28;19920;-82
2023/01/07 05:49:13;;;;;;;;;;;8.20;99.90;;;;;;5055867;28;20350;-82
2023/01/07 05:51:38;;;;;;;;;;;8.20;99.90;;;;;;5055700;28;19924;-81
2023/01/07 05:54:04;;;;;;;;;;;8.20;99.90;;;;;;5064284;28;19909;-83
2023/01/07 05:56:30;;;;;;;;;;;8.20;99.90;;;;;;5064986;28;20262;-83
2023/01/07 05:58:55;;;;;;;;;;;8.20;99.90;;;;;;5057675;28;19967;-83
2023/01/07 06:01:21;;;;;;;;;;;8.10;99.90;;;;;;5054697;28;19979;-83
2023/01/07 06:03:46;;;;;;;;;;;8.10;99.90;;;;;;5053476;28;20311;-84
2023/01/07 06:06:12;;;;;;;;;;;8.10;99.90;;;;;;5053894;28;19916;-84
2023/01/07 06:08:38;;;;;;;;;;;8.00;99.90;;;;;;5052951;28;19948;-83
2023/01/07 06:11:04;;;;;;;;;;;8.00;99.90;;;;;;5051743;28;19909;-83
2023/01/07 06:13:30;;;;;;;;;;;8.10;99.90;;;;;;5052823;28;19909;-83
2023/01/07 06:16:00;;;;;;;;;;;8.10;99.90;;;;;;5052559;28;19904;-84
2023/01/07 06:18:26;;;;;;;;;;;8.20;99.90;;;;;;5060688;28;20004;-83
2023/01/07 06:20:51;;;;;;;;;;;8.20;99.90;;;;;;5072065;28;19986;-83
2023/01/07 06:23:17;;;;;;;;;;;8.20;99.90;;;;;;5072546;28;19920;-83
2023/01/07 06:25:42;;;;;;;;;;;8.20;99.90;;;;;;5072072;28;19908;-83
2023/01/07 06:28:08;;;;;;;;;;;8.30;99.90;;;;;;5072280;28;20338;-83
2023/01/07 06:30:33;;;;;;;;;;;8.30;99.90;;;;;;5072363;28;19930;-82
2023/01/07 06:32:59;;;;;;;;;;;8.30;99.90;;;;;;5071532;28;19916;-82
2023/01/07 06:35:25;;;;;;;;;;;8.20;99.90;;;;;;5071547;28;19996;-82
2023/01/07 06:37:50;;;;;;;;;;;8.20;99.90;;;;;;5072511;28;19912;-82
2023/01/07 06:40:16;;;;;;;;;;;8.20;99.90;;;;;;5072683;28;19928;-83
2023/01/07 06:42:42;;;;;;;;;;;8.20;99.90;;;;;;5076480;28;19964;-83
2023/01/07 06:45:07;;;;;;;;;;;8.20;99.90;;;;;;5088242;28;19967;-83
2023/01/07 06:47:33;;;;;;;;;;;8.20;99.90;;;;;;5077225;28;20392;-83
2023/01/07 06:49:59;;;;;;;;;;;8.20;99.90;;;;;;5075135;28;19998;-83
2023/01/07 06:52:25;;;;;;;;;;;8.20;99.90;;;;;;5072399;28;19913;-83
2023/01/07 06:54:50;;;;;;;;;;;8.20;99.90;;;;;;5071278;28;19913;-83
2023/01/07 06:57:16;;;;;;;;;;;8.20;99.90;;;;;;5072829;28;19917;-83
2023/01/07 06:59:41;;;;;;;;;;;8.20;99.90;;;;;;5071821;28;19912;-83
2023/01/07 07:02:08;;;;;;;;;;;8.10;99.90;;;;;;5071536;28;19916;-82
2023/01/07 07:04:34;;;;;;;;;;;8.10;99.90;;;;;;5071415;28;19908;-83
2023/01/07 07:06:59;;;;;;;;;;;8.00;99.90;;;;;;5070986;28;19985;-83
2023/01/07 07:09:25;;;;;;;;;;;8.00;99.90;;;;;;5071296;28;19955;-83
2023/01/07 07:11:50;;;;;;;;;;;8.00;99.90;;;;;;5069737;28;19909;-82
2023/01/07 07:14:16;;;;;;;;;;;8.00;99.90;;;;;;5071858;28;19965;-83
2023/01/07 07:16:41;;;;;;;;;;;7.90;99.90;;;;;;5071341;28;19936;-81
2023/01/07 07:19:07;;;;;;;;;;;7.90;99.90;;;;;;5072312;28;19922;-82
2023/01/07 07:21:33;;;;;;;;;;;7.80;99.90;;;;;;5070990;28;19908;-83
2023/01/07 07:23:59;;;;;;;;;;;7.80;99.90;;;;;;5071173;28;20017;-83
2023/01/07 07:26:24;;;;;;;;;;;7.80;99.90;;;;;;5070616;28;19935;-83
2023/01/07 07:28:50;;;;;;;;;;;7.70;99.90;;;;;;5070788;28;20008;-83
2023/01/07 07:31:16;;;;;;;;;;;7.70;99.90;;;;;;5071431;28;19912;-83
2023/01/07 07:33:41;;;;;;;;;;;7.60;99.90;;;;;;5081833;28;19909;-82
2023/01/07 07:36:07;;;;;;;;;;;7.60;99.90;;;;;;5080886;28;19909;-83
2023/01/07 07:38:33;;;;;;;;;;;7.50;99.90;;;;;;5071765;28;20372;-83
2023/01/07 07:40:59;;;;;;;;;;;7.50;99.90;;;;;;5071151;28;19924;-83
2023/01/07 07:43:25;;;;;;;;;;;7.40;99.90;;;;;;5073685;28;19909;-83
2023/01/07 07:45:50;;;;;;;;;;;7.40;99.90;;;;;;5074477;28;20257;-83
2023/01/07 07:48:16;;;;;;;;;;;7.40;99.90;;;;;;5074667;28;19919;-82
2023/01/07 07:50:41;;;;;;;;;;;7.30;99.90;;;;;;5075216;28;20010;-83
2023/01/07 07:53:08;;;;;;;;;;;7.30;99.90;;;;;;5075259;28;20354;-84
2023/01/07 07:55:38;;;;;;;;;;;7.30;99.90;;;;;;5073872;28;20018;-83
2023/01/07 07:58:03;;;;;;;;;;;7.20;99.90;;;;;;5074822;28;19919;-84
2023/01/07 08:00:29;;;;;;;;;;;7.20;99.90;;;;;;5075175;28;19956;-83
2023/01/07 08:02:58;;;;;;;;;;;7.20;99.90;;;;;;5074748;28;19909;-82
2023/01/07 08:05:24;;;;;;;;;;;7.20;99.90;;;;;;5074981;28;20388;-83
2023/01/07 08:07:49;;;;;;;;;;;7.20;99.90;;;;;;5074231;28;20095;-82
2023/01/07 08:10:15;;;;;;;;;;;7.10;99.90;;;;;;5074741;28;19908;-83
2023/01/07 08:12:40;;;;;;;;;;;7.10;99.90;;;;;;5075306;28;19944;-83
2023/01/07 08:15:06;;;;;;;;;;;7.10;99.90;;;;;;5074287;28;19928;-83
2023/01/07 08:17:32;;;;;;;;;;;7.10;99.90;;;;;;5074655;28;20337;-83
2023/01/07 08:19:58;;;;;;;;;;;7.00;99.90;;;;;;5074685;28;20054;-83
2023/01/07 08:22:23;;;;;;;;;;;7.00;99.90;;;;;;5075166;28;19909;-83
2023/01/07 08:24:49;;;;;;;;;;;6.90;99.90;;;;;;5074542;28;19985;-83
2023/01/07 08:27:14;;;;;;;;;;;6.90;99.90;;;;;;5074658;28;19909;-83
2023/01/07 08:29:40;;;;;;;;;;;6.80;99.90;;;;;;5074306;28;19916;-83
2023/01/07 08:32:05;;;;;;;;;;;6.70;99.90;;;;;;5074216;28;19904;-83
2023/01/07 08:34:31;;;;;;;;;;;6.70;99.90;;;;;;5075039;28;20345;-83
2023/01/07 08:36:57;;;;;;;;;;;6.60;99.90;;;;;;5073154;28;19999;-83
2023/01/07 08:39:22;;;;;;;;;;;6.60;99.90;;;;;;5073744;28;19924;-84
2023/01/07 08:41:48;;;;;;;;;;;6.50;99.90;;;;;;5070792;28;20196;-83
2023/01/07 08:44:14;;;;;;;;;;;6.50;99.90;;;;;;5054827;28;19937;-83
2023/01/07 08:46:40;;;;;;;;;;;6.40;99.90;;;;;;5055366;28;19992;-84
2023/01/07 08:49:06;;;;;;;;;;;6.40;99.90;;;;;;5054692;28;19986;-83
2023/01/07 08:51:31;;;;;;;;;;;6.40;99.90;;;;;;5054127;28;20003;-82
2023/01/07 08:53:57;;;;;;;;;;;6.40;99.90;;;;;;5053871;28;19909;-82
2023/01/07 08:56:22;;;;;;;;;;;6.40;99.90;;;;;;5054368;28;19913;-83
2023/01/07 08:58:48;;;;;;;;;;;6.40;99.90;;;;;;5058893;28;19916;-83
2023/01/07 09:01:13;;;;;;;;;;;6.30;99.90;;;;;;5066041;28;19983;-84
2023/01/07 09:03:39;;;;;;;;;;;6.40;99.90;;;;;;5061657;28;20401;-84
2023/01/07 09:06:05;;;;;;;;;;;6.40;99.90;;;;;;5053772;28;19913;-84
2023/01/07 09:08:30;;;;;;;;;;;6.50;99.90;;;;;;5054197;28;19909;-85
2023/01/07 09:10:56;;;;;;;;;;;6.60;99.90;;;;;;5053454;28;20373;-84
2023/01/07 09:13:21;;;;;;;;;;;6.50;99.90;;;;;;5060343;28;19962;-85
2023/01/07 09:15:47;;;;;;;;;;;6.60;99.90;;;;;;5068581;28;20397;-83
2023/01/07 09:18:13;;;;;;;;;;;6.60;99.90;;;;;;5058635;28;19932;-84
2023/01/07 09:20:38;;;;;;;;;;;6.60;99.90;;;;;;5061851;28;19912;-84
2023/01/07 09:23:04;;;;;;;;;;;6.60;99.90;;;;;;5069677;28;19909;-84
2023/01/07 09:25:30;;;;;;;;;;;6.70;99.90;;;;;;5076644;28;19913;-84
2023/01/07 09:27:55;;;;;;;;;;;6.70;99.90;;;;;;5077074;28;19961;-84
2023/01/07 09:30:21;;;;;;;;;;;6.70;99.90;;;;;;5070023;28;19909;-84
2023/01/07 09:32:47;;;;;;;;;;;6.80;99.90;;;;;;5057334;28;20003;-83
2023/01/07 09:35:14;;;;;;;;;;;6.80;99.90;;;;;;5055608;28;19909;-85
2023/01/07 09:37:40;;;;;;;;;;;6.90;99.90;;;;;;5054173;28;20044;-84
2023/01/07 09:40:08;;;;;;;;;;;6.90;99.90;;;;;;5054274;28;19924;-84
2023/01/07 09:42:33;;;;;;;;;;;6.90;99.90;;;;;;5047255;28;19935;-83
2023/01/07 09:45:03;;;;;;;;;;;6.90;99.90;;;;;;5073296;28;19917;-82
2023/01/07 09:47:32;;;;;;;;;;;6.90;99.90;;;;;;5071742;28;19917;-81
2023/01/07 09:50:04;;;;;;;;;;;6.90;99.90;;;;;;5067953;28;19921;-83
2023/01/07 09:52:35;;;;;;;;;;;6.90;99.90;;;;;;5067409;28;19912;-80
2023/01/07 09:55:15;;;;;;;;;;;7.00;99.90;;;;;;5063634;28;19913;-80
2023/01/07 09:57:40;;;;;;;;;;;7.00;99.90;;;;;;5063377;28;19923;-81
2023/01/07 10:00:13;;;;;;;;;;;7.00;99.90;;;;;;5055013;28;19913;-81
2023/01/07 10:02:58;;;;;;;;;;;7.10;99.90;;;;;;5053094;28;19952;-83
2023/01/07 10:05:42;;;;;;;;;;;7.10;99.90;;;;;;5059259;28;19912;-82
2023/01/07 10:08:15;;;;;;;;;;;7.20;99.90;;;;;;5060174;28;20311;-82
2023/01/07 10:10:43;;;;;;;;;;;7.20;99.90;;;;;;5067217;28;20358;-82
2023/01/07 10:13:15;;;;;;;;;;;7.20;99.90;;;;;;5072065;28;19977;-83
2023/01/07 10:15:43;;;;;;;;;;;7.30;99.90;;;;;;5073017;28;19908;-83
2023/01/07 10:18:11;;;;;;;;;;;7.30;99.90;;;;;;5072074;28;20062;-83
2023/01/07 10:20:55;;;;;;;;;;;7.40;99.90;;;;;;5072595;28;19931;-83
2023/01/07 10:23:24;;;;;;;;;;;7.40;99.90;;;;;;5072489;28;19937;-83
2023/01/07 10:25:52;;;;;;;;;;;7.50;99.90;;;;;;5072352;28;19912;-83
2023/01/07 10:28:42;;;;;;;;;;;7.60;99.90;;;;;;5072319;28;20314;-84
2023/01/07 10:31:14;;;;;;;;;;;7.70;99.90;;;;;;5071845;28;20070;-82
2023/01/07 10:33:40;;;;;;;;;;;7.80;99.90;;;;;;5071663;28;20378;-81
2023/01/07 10:36:18;;;;;;;;;;;7.90;99.90;;;;;;5071354;28;19962;-82
2023/01/07 10:38:50;;;;;;;;;;;8.10;99.90;;;;;;5072064;28;19978;-83
2023/01/07 10:41:23;;;;;;;;;;;8.30;99.90;;;;;;5071808;28;19924;-83
2023/01/07 10:44:02;;;;;;;;;;;8.50;99.90;;;;;;5072536;28;19938;-83
2023/01/07 10:46:39;;;;;;;;;;;8.60;99.90;;;;;;5072284;28;20082;-82
2023/01/07 10:49:05;;;;;;;;;;;8.70;99.90;;;;;;5053523;28;19920;-83
2023/01/07 10:51:49;;;;;;;;;;;8.80;99.90;;;;;;5072236;28;19908;-84
2023/01/07 10:54:17;;;;;;;;;;;8.90;99.90;;;;;;5071638;28;20510;-83
2023/01/07 10:56:49;;;;;;;;;;;8.90;99.90;;;;;;5072471;28;19931;-82
2023/01/07 10:59:19;;;;;;;;;;;8.90;99.90;;;;;;5071075;28;20518;-83
2023/01/07 11:01:50;;;;;;;;;;;8.90;99.90;;;;;;5071882;28;20395;-81
2023/01/07 11:04:16;;;;;;;;;;;8.90;99.90;;;;;;5070788;28;20052;-83
2023/01/07 11:07:02;;;;;;;;;;;8.90;99.90;;;;;;5061858;28;19920;-82
2023/01/07 11:09:30;;;;;;;;;;;8.90;99.90;;;;;;5052221;28;19909;-82
2023/01/07 11:11:57;;;;;;;;;;;9.00;99.90;;;;;;5051909;28;19909;-84
2023/01/07 11:14:31;;;;;;;;;;;9.10;99.90;;;;;;5051488;28;19944;-82
2023/01/07 11:17:04;;;;;;;;;;;9.20;99.90;;;;;;5052289;28;19912;-83
2023/01/07 11:19:40;;;;;;;;;;;9.20;99.90;;;;;;5062477;28;19948;-82
2023/01/07 11:22:26;;;;;;;;;;;9.40;99.90;;;;;;5060232;28;19913;-82
2023/01/07 11:24:55;;;;;;;;;;;9.40;99.90;;;;;;5065151;28;19915;-81
2023/01/07 11:27:23;;;;;;;;;;;9.40;99.90;;;;;;5066651;28;20369;-82
2023/01/07 11:29:57;;;;;;;;;;;9.30;99.90;;;;;;5061259;28;20365;-82
2023/01/07 11:32:27;;;;;;;;;;;9.30;99.90;;;;;;5059961;28;19928;-82
2023/01/07 11:35:00;;;;;;;;;;;9.30;99.90;;;;;;5071532;28;20231;-83
2023/01/07 11:37:34;;;;;;;;;;;9.30;99.90;;;;;;5070730;28;19913;-83
2023/01/07 11:40:01;;;;;;;;;;;9.30;99.90;;;;;;5070517;28;19916;-81
2023/01/07 11:42:40;;;;;;;;;;;9.20;99.90;;;;;;5070495;28;20003;-81
2023/01/07 11:45:19;;;;;;;;;;;9.10;99.90;;;;;;5070461;28;19909;-80
2023/01/07 11:47:51;;;;;;;;;;;9.10;99.90;;;;;;5062022;28;19913;-81
2023/01/07 11:50:24;;;;;;;;;;;9.00;99.90;;;;;;5058902;28;19925;-82
2023/01/07 11:52:58;;;;;;;;;;;9.10;99.90;;;;;;5066274;28;20285;-81
2023/01/07 11:55:23;;;;;;;;;;;9.10;99.90;;;;;;5056438;28;19913;-80
2023/01/07 11:57:53;;;;;;;;;;;9.00;99.90;;;;;;5060631;28;20401;-81
2023/01/07 12:00:19;;;;;;;;;;;9.00;99.90;;;;;;5065295;28;19913;-81
2023/01/07 12:02:44;;;;;;;;;;;8.90;99.90;;;;;;5059111;28;19912;-81
2023/01/07 12:05:18;;;;;;;;;;;8.90;99.90;;;;;;5060194;28;19966;-80
2023/01/07 12:07:44;;;;;;;;;;;8.90;99.90;;;;;;5059771;28;20044;-80
2023/01/07 12:10:28;;;;;;;;;;;8.90;99.90;;;;;;5061279;28;19978;-80
2023/01/07 12:12:54;;;;;;;;;;;8.80;99.90;;;;;;5063365;28;19909;-80
2023/01/07 12:15:25;;;;;;;;;;;8.80;99.90;;;;;;5060615;28;21333;-80
2023/01/07 12:18:06;;;;;;;;;;;8.80;99.90;;;;;;5053763;28;20317;-80
2023/01/07 12:20:40;;;;;;;;;;;8.80;99.90;;;;;;5061506;28;19952;-81
2023/01/07 12:23:21;;;;;;;;;;;8.70;99.90;;;;;;5060489;28;19916;-81
2023/01/07 12:25:59;;;;;;;;;;;8.80;99.90;;;;;;5061300;28;19931;-81
2023/01/07 12:28:36;;;;;;;;;;;8.70;99.90;;;;;;5070246;28;19932;-80
2023/01/07 12:31:02;;;;;;;;;;;8.70;99.90;;;;;;5072912;28;19996;-81
2023/01/07 12:33:46;;;;;;;;;;;8.70;99.90;;;;;;5074356;28;20027;-80
2023/01/07 12:36:15;;;;;;;;;;;8.80;99.90;;;;;;5074059;28;19919;-81
2023/01/07 12:38:45;;;;;;;;;;;8.80;99.90;;;;;;5074465;28;19977;-81
2023/01/07 12:41:18;;;;;;;;;;;8.80;99.90;;;;;;5073383;28;20314;-81
2023/01/07 12:43:53;;;;;;;;;;;8.80;99.90;;;;;;5073184;28;19947;-81
2023/01/07 12:46:20;;;;;;;;;;;8.80;99.90;;;;;;5073976;28;19912;-81
2023/01/07 12:48:45;;;;;;;;;;;8.90;99.90;;;;;;5073876;28;19963;-81
2023/01/07 12:51:18;;;;;;;;;;;8.90;99.90;;;;;;5073610;28;19908;-81
2023/01/07 12:53:52;;;;;;;;;;;8.90;99.90;;;;;;5073003;28;19909;-80
2023/01/07 12:56:31;;;;;;;;;;;8.90;99.90;;;;;;5073519;28;20338;-81
2023/01/07 12:59:02;;;;;;;;;;;8.90;99.90;;;;;;5072875;28;20464;-80
2023/01/07 13:01:30;;;;;;;;;;;8.90;99.90;;;;;;5073712;28;20027;-81
2023/01/07 13:04:05;;;;;;;;;;;8.90;99.90;;;;;;5073730;28;19947;-83
2023/01/07 13:06:46;;;;;;;;;;;8.90;99.90;;;;;;5073226;28;19908;-81
2023/01/07 13:09:19;;;;;;;;;;;8.90;99.90;;;;;;5067473;28;19997;-81
2023/01/07 13:14:41;;;;;;;;;;;8.90;99.90;;;;;;5067114;28;19915;-80
2023/01/07 13:17:17;;;;;;;;;;;9.00;99.90;;;;;;5073062;28;19908;-81
2023/01/07 13:19:42;;;;;;;;;;;9.00;99.90;;;;;;5072227;28;19913;-81
2023/01/07 13:22:28;;;;;;;;;;;8.90;99.90;;;;;;5073151;28;19909;-81
2023/01/07 13:25:12;;;;;;;;;;;8.90;99.90;;;;;;5061887;28;19908;-81
2023/01/07 13:27:46;;;;;;;;;;;8.90;99.90;;;;;;5073355;28;19920;-81
2023/01/07 13:30:15;;;;;;;;;;;8.90;99.90;;;;;;5066655;28;19960;-81
2023/01/07 13:32:49;;;;;;;;;;;8.90;99.90;;;;;;5053554;28;19909;-81
2023/01/07 13:35:33;;;;;;;;;;;8.90;99.90;;;;;;5053135;28;20330;-81
2023/01/07 13:38:02;;;;;;;;;;;9.00;99.90;;;;;;5053488;28;19926;-81
2023/01/07 13:40:46;;;;;;;;;;;8.90;99.90;;;;;;5053079;28;19919;-81
2023/01/07 13:43:26;;;;;;;;;;;8.90;99.90;;;;;;5052805;28;19944;-81
2023/01/07 13:45:55;;;;;;;;;;;8.90;99.90;;;;;;5052472;28;19909;-80
2023/01/07 13:48:22;;;;;;;;;;;8.90;99.90;;;;;;5052349;28;19909;-81
2023/01/07 13:50:59;;;;;;;;;;;9.00;99.90;;;;;;5050751;28;20320;-80
2023/01/07 13:53:24;;;;;;;;;;;8.90;99.90;;;;;;5052111;28;19976;-81
2023/01/07 13:55:50;;;;;;;;;;;9.00;99.90;;;;;;5052781;28;19955;-80
2023/01/07 13:58:42;;;;;;;;;;;9.00;99.90;;;;;;5052049;28;19967;-81
2023/01/07 14:01:15;;;;;;;;;;;9.00;99.90;;;;;;5052758;28;19935;-80
2023/01/07 14:03:41;;;;;;;;;;;9.00;99.90;;;;;;5053875;28;19919;-80
2023/01/07 14:06:19;;;;;;;;;;;9.00;99.90;;;;;;5071587;28;19912;-80
2023/01/07 14:08:49;;;;;;;;;;;9.00;99.90;;;;;;5072933;28;19912;-81
2023/01/07 14:11:15;;;;;;;;;;;9.00;99.90;;;;;;5073002;28;19965;-80
2023/01/07 14:13:49;;;;;;;;;;;9.00;99.90;;;;;;5073325;28;19925;-80
2023/01/07 14:16:33;;;;;;;;;;;9.00;99.90;;;;;;5072896;28;19930;-81
2023/01/07 14:19:31;;;;;;;;;;;9.10;99.90;;;;;;5073266;28;19912;-81
2023/01/07 14:22:08;;;;;;;;;;;9.00;99.90;;;;;;5038927;28;19912;-81
2023/01/07 14:24:37;;;;;;;;;;;9.00;99.90;;;;;;5073447;28;19916;-80
2023/01/07 14:27:05;;;;;;;;;;;9.00;99.90;;;;;;5072704;28;19915;-82
2023/01/07 14:29:40;;;;;;;;;;;9.00;99.90;;;;;;5071985;28;20218;-79
2023/01/07 14:32:14;;;;;;;;;;;9.00;99.90;;;;;;5072957;28;19916;-80
2023/01/07 14:34:40;;;;;;;;;;;8.90;99.90;;;;;;5073144;28;20062;-79
2023/01/07 14:37:11;;;;;;;;;;;8.90;99.90;;;;;;5073216;28;20278;-80
2023/01/07 14:39:36;;;;;;;;;;;8.90;99.90;;;;;;5073765;28;19927;-80
2023/01/07 14:42:17;;;;;;;;;;;8.80;99.90;;;;;;5068556;28;19912;-79